Flight Track Log - Related Links

Times and Time Zones

All times are in EDT time to prevent confusion due to time zone crossing. See the EJA922 flight status page for this flight to view local times or setup timezone preferences in your user account.

Time Position Orientation Groundspeed Altitude Reporting Facility
EDT Latitude Longitude Course Direction KTS MPH feet Rate Location/Type
Mon 06:51:30 PM 29.6033 -90.6658 352° North 193 222 40,000  Level Houston Center
Mon 06:52:36 PM 29.6672 -90.7042 332° Northwest 269 310 7,100 -14,565 Descending Houston Center
Mon 06:53:34 PM 29.7283 -90.7486 328° Northwest 261 300 9,900 1,700 Climbing Houston Center
Mon 06:54:36 PM 29.8217 -90.8153 328° Northwest 332 382 10,500 1,452 Climbing Houston Center
Mon 06:55:38 PM 29.9097 -90.8789 328° Northwest 381 438 12,900 2,049 Climbing Houston Center
Mon 06:56:39 PM 30.0031 -90.9456 328° Northwest 392 451 14,700 1,707 Climbing Houston Center
Mon 06:57:41 PM 30.1178 -91.0289 328° Northwest 404 465 16,400 1,258 Climbing Houston Center
Mon 06:58:43 PM 30.2164 -91.1003 328° Northwest 415 478 17,300 919 Climbing Houston Center
Mon 06:59:45 PM 30.3178 -91.1739 328° Northwest 425 489 18,300 968 Climbing Houston Center
Mon 07:00:47 PM 30.4206 -91.2481 328° Northwest 433 498 19,300 968 Climbing Houston Center
Mon 07:01:49 PM 30.5211 -91.3267 326° Northwest 436 502 20,300 1,065 Climbing Houston Center
Mon 07:02:51 PM 30.6283 -91.4283 321° Northwest 436 502 21,500 1,065 Climbing Houston Center
Mon 07:03:53 PM 30.7131 -91.5322 314° West 443 510 22,500 927 Climbing Houston Center
Mon 07:04:54 PM 30.8000 -91.6361 314° West 447 514 23,400 927 Climbing Houston Center
Mon 07:05:56 PM 30.8881 -91.7406 315° West 451 519 24,400 968 Climbing Houston Center
Mon 07:06:58 PM 30.9767 -91.8469 314° West 456 525 25,400 968 Climbing Houston Center
Mon 07:08:00 PM 31.0667 -91.9558 314° West 465 535 26,400 919 Climbing Houston Center
Mon 07:09:02 PM 31.1581 -92.0664 314° West 468 539 27,300 1,024 Climbing Houston Center
Mon 07:10:03 PM 31.2675 -92.1994 314° West 476 548 28,500 1,073 Climbing Houston Center
Mon 07:11:05 PM 31.3600 -92.3106 314° West 479 551 29,500 960 Climbing Houston Center
Mon 07:12:08 PM 31.4528 -92.4233 314° West 482 555 30,500 919 Climbing Houston Center
Mon 07:13:09 PM 31.5461 -92.5372 314° West 486 559 31,400 829 Climbing Houston Center
Mon 07:14:11 PM 31.6389 -92.6531 313° West 488 562 32,200 629 Climbing Houston Center
Mon 07:15:13 PM 31.7328 -92.7678 314° West 489 563 32,700 537 Climbing Houston Center
Mon 07:16:14 PM 31.8478 -92.9100 314° West 497 572 33,300 488 Climbing Houston Center
Mon 07:17:16 PM 31.9350 -93.0178 314° West 495 570 33,700 339 Climbing Houston Center
Mon 07:18:18 PM 32.0303 -93.1361 314° West 496 571 34,000 145 Climbing Houston Center
Mon 07:19:20 PM 32.1436 -93.2789 313° West 498 573 34,000  Level Houston Center
Mon 07:19:57 PM 32.1978 -93.3431 315° West 495 570 34,000  Level Fort Worth Center
Mon 07:20:57 PM 32.2889 -93.4569 313° West 481 554 34,000  Level Fort Worth Center
Mon 07:21:57 PM 32.3847 -93.5783 313° West 486 559 34,000  Level Fort Worth Center
Mon 07:22:57 PM 32.4800 -93.6997 313° West 494 568 34,000  Level Fort Worth Center
Mon 07:23:57 PM 32.5733 -93.8217 312° West 499 574 34,000  Level Fort Worth Center
Mon 07:24:57 PM 32.6578 -93.9294 313° West 504 580 34,000  Level Fort Worth Center
Mon 07:25:57 PM 32.7531 -94.0542 312° West 504 580 34,000  Level Fort Worth Center
Mon 07:26:57 PM 32.8481 -94.1767 313° West 504 580 34,000  Level Fort Worth Center
Mon 07:27:57 PM 32.9431 -94.2994 313° West 504 580 34,000  Level Fort Worth Center
Mon 07:28:57 PM 33.0381 -94.4225 313° West 504 580 34,000  Level Fort Worth Center
Mon 07:29:57 PM 33.1369 -94.5481 313° West 504 580 34,000  Level Fort Worth Center
Mon 07:30:57 PM 33.2314 -94.6717 312° West 504 580 34,000  Level Fort Worth Center
Mon 07:31:57 PM 33.3239 -94.7956 312° West 504 580 34,000  Level Fort Worth Center
Mon 07:32:57 PM 33.4181 -94.9147 313° West 504 580 34,000  Level Fort Worth Center
Mon 07:33:57 PM 33.4936 -95.0447 305° West 504 580 34,000  Level Fort Worth Center
Mon 07:34:57 PM 33.5692 -95.1847 303° West 499 574 34,000  Level Fort Worth Center
Mon 07:35:57 PM 33.6611 -95.3122 311° West 499 574 34,000  Level Fort Worth Center
Mon 07:36:57 PM 33.7386 -95.4478 305° West 499 574 34,000  Level Fort Worth Center
Mon 07:37:57 PM 33.8178 -95.5783 306° West 494 568 34,000 -300 Level Fort Worth Center
Mon 07:38:57 PM 33.9031 -95.7067 309° West 494 568 33,400 -800 Descending Fort Worth Center
Mon 07:39:57 PM 33.9903 -95.8428 308° West 499 574 32,400 -1,000 Descending Fort Worth Center
Mon 07:40:57 PM 34.0756 -95.9792 307° West 499 574 31,400 -1,050 Descending Fort Worth Center
Mon 07:41:57 PM 34.1583 -96.1183 306° West 507 583 30,300 -1,050 Descending Fort Worth Center
Mon 07:42:57 PM 34.2453 -96.2578 307° West 513 590 29,300 -1,000 Descending Fort Worth Center
Mon 07:43:57 PM 34.3300 -96.3975 306° West 513 590 28,300 -1,050 Descending Fort Worth Center
Mon 07:44:57 PM 34.4122 -96.5350 306° West 513 590 27,200 -1,650 Descending Fort Worth Center
Mon 07:45:57 PM 34.4967 -96.6703 307° West 513 590 25,000 -2,400 Descending Fort Worth Center
Mon 07:46:57 PM 34.5767 -96.8006 307° West 501 577 22,400 -2,700 Descending Fort Worth Center
Mon 07:47:57 PM 34.6503 -96.9214 307° West 476 548 19,600 -2,550 Descending Fort Worth Center
Mon 07:48:57 PM 34.7236 -97.0422 306° West 461 531 17,300 -2,500 Descending Fort Worth Center
Mon 07:49:45 PM 34.7844 -97.1406 307° West 423 487 15,100 -2,727 Descending Fort Worth Center
Mon 07:50:03 PM 34.8053 -97.1783 304° West 420 483 14,300 -2,250 Descending Fort Worth Center
Mon 07:50:57 PM 34.8639 -97.2667 309° West 425 489 12,400 -2,262 Descending Fort Worth Center
Mon 07:51:04 PM 34.8847 -97.2919 315° West 407 468 12,000 -1,300 Descending Fort Worth Center
Mon 07:51:57 PM 34.9472 -97.3350 331° Northwest 386 444 11,100 -1,200 Descending Fort Worth Center
Mon 07:52:04 PM 34.9683 -97.3503 329° Northwest 319 367 10,800 -1,588 Descending Fort Worth Center
Mon 07:53:05 PM 35.0392 -97.3983 331° Northwest 277 319 9,300 -1,736 Descending Fort Worth Center
Mon 07:54:05 PM 35.1100 -97.4467 331° Northwest 279 321 7,300 -1,768 Descending Fort Worth Center
Mon 07:54:57 PM 35.1664 -97.4822 333° Northwest 293 337 6,000 -1,377 Descending Fort Worth Center
Mon 07:55:06 PM 35.1747 -97.4872 334° Northwest 271 312 5,900 -1,300 Descending Fort Worth Center
Mon 07:55:57 PM 35.2353 -97.5050 347° North 269 310 4,700 -1,475 Descending Fort Worth Center
Mon 07:56:07 PM 35.2436 -97.5100 334° Northwest 249 287 4,400 -700 Descending Fort Worth Center
Mon 07:56:57 PM 35.3019 -97.5231 350° North 257 296 4,000 -400 Descending Fort Worth Center
Mon 07:57:07 PM 35.3103 -97.5306 324° Northwest 251 289 4,000 -900 Level Fort Worth Center
Mon 07:57:57 PM 35.3708 -97.5408 352° North 252 290 3,100 -984 Descending Fort Worth Center
Mon 07:58:08 PM 35.3833 -97.5433 351° North 239 275 3,000 -600 Descending Fort Worth Center
Mon 07:58:57 PM 35.4292 -97.5486 355° North 231 266 2,500 -787 Descending Fort Worth Center
Mon 07:59:09 PM 35.4311 -97.5564 287° West 160 184 2,200 -700 Descending Fort Worth Center
Mon 07:59:57 PM 35.4292 -97.5894 266° West 131 151 1,800 -500 Descending Fort Worth Center
Mon 08:00:09 PM 35.4186 -97.5944 201° Southwest 117 135 1,700 -500 Descending Fort Worth Center
Mon 08:00:57 PM 35.4019 -97.5919 173° South 53 61 1,300 17,944 Descending Fort Worth Center
Mon 08:01:57 PM 35.3914 -97.6044 224° Southwest 53 61 34,000 16,350 Climbing Fort Worth Center
Mon 08:02:57 PM 35.3811 -97.6172 225° Southwest 53 61 34,000  Level Fort Worth Center
Mon 08:03:57 PM 35.3706 -97.6300 225° Southwest 53 61 34,000  Level Fort Worth Center
Mon 08:05:00 PM 35.3747 -97.6086 39° Northeast  Level FlightAware Approximate

Login

Don't have an account? Register now (free) for customized features, flight alerts, and more!